CheckWX is a tool to help pilots better visualize weather data.  It is not intended as a substitute for an official pre-flight weather briefing.

09:15:02 UTC

KHOT METAR
Memorial Field Airport
Hot Springs, Arkansas, USA
Current

22 mins ago

KHOT 250853Z AUTO 10005KT 10SM OVC010 24/24 A2994 RMK AO2 CIG 007V013 SLP131 T02440239 58008
Observed
Aug-25 @ 08:53 UTC
Wind
  • 100° at 5 KTS
Visibility
10 SM
Flight Rules
MVFR
Cloud Levels
  • Overcast at 1,000' AGL
Temperature
24°C / 75°F
Dewpoint
24°C / 75°F
Humidity
100%
Altimeter
29.94" Hg
Pressure
1013.92 hPa
Previous

57 mins ago

KHOT 250818Z AUTO 11003KT 10SM OVC012 24/24 A2995 RMK AO2 T02440239
Observed
Aug-25 @ 08:18 UTC
Wind
  • 110° at 3 KTS
Visibility
10 SM
Flight Rules
MVFR
Cloud Levels
  • Overcast at 1,200' AGL
Temperature
24°C / 75°F
Dewpoint
24°C / 75°F
Humidity
100%
Altimeter
29.95" Hg
Pressure
1014.22 hPa
Previous

1 hour ago

KHOT 250753Z AUTO 09003KT 10SM BKN008 OVC014 24/24 A2996 RMK AO2 CIG 006V010 SLP137 T02440239
Observed
Aug-25 @ 07:53 UTC
Wind
  • 090° at 3 KTS
Visibility
10 SM
Flight Rules
IFR
Cloud Levels
  • Broken at 800' AGL
  • Overcast at 1,400' AGL
Temperature
24°C / 75°F
Dewpoint
24°C / 75°F
Humidity
100%
Altimeter
29.96" Hg
Pressure
1014.52 hPa